Airfield :
LOGIN :

Register | Disclaimer

   EN    FR    IT 

 










Legend :    VFR   Marginal VFR   IFR   Intensive IFR   Very Intensive IFR
Visi :
Ceiling :
>= 8 km
>= 3000ft
5 to 8 km
1000 to 3000 ft
1500m to 5 km
500 to 1000 ft
800 to 1500m
200 to 500 ft
< 800m
< 200 ft
Symbols :   Thunderstorms  Fog  Heavy snow  Heavy precipitations  Wind > 20 kt
SIGMETs :     Misc.  Thunderstorms  Icing  Turbulence  Mountain Waves  Volcanic Ashes






- Airport Elevation : 194 ft
- IATA code : LME


LFRM - Le Mans

CURRENT METAR :
  • 132200Z AUTO 09003KT 9999 FEW006 BKN015 BKN025 16/15 Q1012

EXPIRED METARs :
  • 132130Z AUTO 00000KT 9999 FEW008 BKN015 BKN088 16/16 Q1012
  • 132100Z AUTO VRB02KT 9999 -RA SCT008 BKN017 BKN060 16/15 Q1012 TEMPO RA BKN010
  • 132030Z AUTO 00000KT 9999 -RA OVC017 17/16 Q1012 TEMPO RA BKN010
  • 132000Z AUTO 00000KT 9999 OVC018/// ///TCU 17/16 Q1012 TEMPO RA BKN010
  • 131930Z AUTO 00000KT 9999 BKN019 BKN024 OVC030 17/16 Q1012 TEMPO RA BKN010
  • 131900Z AUTO VRB03KT 9999 BKN015 OVC028 17/16 Q1012 TEMPO RA BKN010

TAF AMD TAF LFRM
Valid from the 13 at 17:00 until the 14 at 18:00 UTC


131739Z 1317/1418 24008KT 9999 BKN035
PROB40
TEMPO 1318/1319 6000 SHRA BKN030 SCT030CB
PROB40
TEMPO 1319/1405 RA BKN010
TEMPO 1406/1418 3000 SHRA BKN005 BKN015CB
PROB30
TEMPO 1413/1418 VRB15G25KT 4000 SHRA TSRA



MET'MAP, your aeronautical weather chart ! - Copyright ORBIFLY December 2007 - Disclaimer

ORBIFLY MET'MAP TEAM :

Programming & Development : Alexandra Zaïnal
Concept & Development : Baudouin d'Aumeries
Co-Development & Prog : Marc-Olivier Méhu
Technical & hardware support : Manuel Goepfert

Contact : metmap@orbifly.com




SOURCES & CREDITS :

   NOAA